createdAt,value
2022-10-28T00:03:10.477Z,100.00
2022-10-28T00:08:12.712Z,100.00
2022-10-28T00:13:14.720Z,100.00
2022-10-28T00:18:16.745Z,100.00
2022-10-28T00:23:18.893Z,100.00
2022-10-28T00:28:21.085Z,100.00
2022-10-28T00:33:23.162Z,100.00
2022-10-28T00:38:25.181Z,100.00
2022-10-28T00:43:38.053Z,100.00
2022-10-28T00:48:43.518Z,100.00
2022-10-28T00:53:48.521Z,100.00
2022-10-28T00:58:53.464Z,100.00
2022-10-28T01:03:57.422Z,100.00
2022-10-28T01:09:00.255Z,100.00
2022-10-28T01:14:23.817Z,100.00
2022-10-28T01:20:00.034Z,100.00
2022-10-28T01:25:27.361Z,100.00
2022-10-28T01:30:54.797Z,100.00
2022-10-28T01:36:12.169Z,100.00
2022-10-28T01:41:31.078Z,100.00
2022-10-28T01:46:51.971Z,100.00
2022-10-28T01:51:57.482Z,100.00
2022-10-28T01:57:01.776Z,100.00
2022-10-28T02:02:04.334Z,100.00
2022-10-28T02:07:06.609Z,100.00
2022-10-28T02:12:11.431Z,100.00
2022-10-28T02:17:36.756Z,100.00
2022-10-28T02:22:57.518Z,100.00
2022-10-28T02:28:22.013Z,100.00
2022-10-28T02:33:34.891Z,100.00
2022-10-28T02:38:44.664Z,100.00
2022-10-28T02:43:49.650Z,100.00
2022-10-28T02:48:57.507Z,100.00
2022-10-28T02:54:13.579Z,100.00
2022-10-28T02:59:15.853Z,100.00
2022-10-28T03:04:18.174Z,100.00
2022-10-28T03:09:20.499Z,100.00
2022-10-28T03:14:22.670Z,100.00
2022-10-28T03:19:25.264Z,100.00
2022-10-28T03:24:27.514Z,100.00
2022-10-28T03:29:29.596Z,100.00
2022-10-28T03:34:31.705Z,100.00
2022-10-28T03:39:33.967Z,100.00
2022-10-28T03:44:36.095Z,100.00
2022-10-28T03:49:38.181Z,100.00
2022-10-28T03:54:40.273Z,100.00
2022-10-28T03:59:42.263Z,100.00
2022-10-28T04:04:44.479Z,100.00
2022-10-28T04:09:49.969Z,100.00
2022-10-28T04:14:53.737Z,100.00
2022-10-28T04:19:56.025Z,100.00
2022-10-28T04:24:58.069Z,100.00
2022-10-28T04:30:00.158Z,100.00
2022-10-28T04:35:02.363Z,100.00
2022-10-28T04:40:05.655Z,100.00
2022-10-28T04:45:08.605Z,100.00
2022-10-28T04:50:10.646Z,100.00
2022-10-28T04:55:12.858Z,100.00
2022-10-28T05:00:15.128Z,100.00
2022-10-28T05:05:18.187Z,100.00
2022-10-28T05:10:20.465Z,100.00
2022-10-28T05:15:22.686Z,100.00
2022-10-28T05:20:25.130Z,100.00
2022-10-28T05:25:27.183Z,100.00
2022-10-28T05:30:29.469Z,100.00
2022-10-28T05:35:31.991Z,100.00
2022-10-28T05:40:34.625Z,100.00
2022-10-28T05:45:36.996Z,100.00
2022-10-28T05:50:39.015Z,100.00
2022-10-28T05:55:45.223Z,100.00
2022-10-28T06:00:49.974Z,100.00
2022-10-28T06:05:52.397Z,100.00
2022-10-28T06:10:53.721Z,100.00
2022-10-28T06:15:56.227Z,100.00
2022-10-28T06:20:58.911Z,100.00
2022-10-28T06:26:03.352Z,100.00
2022-10-28T06:31:10.585Z,100.00
2022-10-28T06:36:12.814Z,100.00
2022-10-28T06:41:14.878Z,92.59
2022-10-28T06:46:16.991Z,51.49
2022-10-28T06:51:20.696Z,39.65
2022-10-28T06:56:23.366Z,34.65
2022-10-28T07:01:25.520Z,33.72
2022-10-28T07:06:27.912Z,33.29
2022-10-28T07:11:30.305Z,34.00
2022-10-28T07:16:32.484Z,33.71
2022-10-28T07:21:34.848Z,35.17
2022-10-28T07:26:37.147Z,37.36
2022-10-28T07:31:39.205Z,38.34
2022-10-28T07:36:41.228Z,38.66
2022-10-28T07:41:43.450Z,38.88
2022-10-28T07:46:45.674Z,36.83
2022-10-28T07:51:50.975Z,39.28
2022-10-28T07:56:53.066Z,36.70
2022-10-28T08:01:55.522Z,35.68
2022-10-28T08:06:58.085Z,34.33
2022-10-28T08:12:00.456Z,34.63
2022-10-28T08:17:02.779Z,32.73
2022-10-28T08:22:05.075Z,31.58
2022-10-28T08:27:07.277Z,30.97
2022-10-28T08:32:09.971Z,28.53
2022-10-28T08:37:12.181Z,30.37
2022-10-28T08:42:30.289Z,29.88
2022-10-28T08:47:57.528Z,29.19
2022-10-28T08:58:39.560Z,28.81
2022-10-28T09:03:45.494Z,29.51
2022-10-28T09:08:49.798Z,32.12
2022-10-28T09:14:10.710Z,31.76
2022-10-28T09:19:28.777Z,33.59
2022-10-28T09:24:46.415Z,32.18
2022-10-28T09:30:07.045Z,30.63
2022-10-28T09:35:15.125Z,29.02
2022-10-28T09:40:22.561Z,28.02
2022-10-28T09:45:28.968Z,27.06
2022-10-28T09:50:33.189Z,29.15
2022-10-28T09:55:35.636Z,31.32
2022-10-28T10:00:37.910Z,31.44
2022-10-28T10:05:45.487Z,30.28
2022-10-28T10:10:56.228Z,30.01
2022-10-28T10:16:07.169Z,30.27
2022-10-28T10:21:09.388Z,30.55
2022-10-28T10:26:17.388Z,30.36
2022-10-28T10:31:27.642Z,28.83
2022-10-28T10:36:31.707Z,29.18
2022-10-28T10:41:42.481Z,29.84
2022-10-28T10:46:44.752Z,30.26
2022-10-28T10:51:57.336Z,31.24
2022-10-28T10:57:21.985Z,33.04
2022-10-28T11:02:39.994Z,32.66
2022-10-28T11:07:48.448Z,35.19
2022-10-28T11:13:01.059Z,35.39
2022-10-28T11:18:09.236Z,34.77
2022-10-28T11:23:35.383Z,33.52
2022-10-28T11:28:58.018Z,33.45
2022-10-28T11:34:27.624Z,34.44
2022-10-28T11:39:36.980Z,35.13
2022-10-28T11:45:09.328Z,34.89
2022-10-28T11:50:31.137Z,34.78
2022-10-28T11:55:48.141Z,35.25
2022-10-28T12:01:38.335Z,35.64
2022-10-28T12:06:43.252Z,36.53
2022-10-28T12:12:13.662Z,36.18
2022-10-28T12:17:30.784Z,36.36
2022-10-28T12:22:54.988Z,37.56
2022-10-28T12:28:23.737Z,36.79
2022-10-28T12:33:28.748Z,36.76
2022-10-28T12:38:39.042Z,37.15
2022-10-28T12:44:07.030Z,37.05
2022-10-28T12:49:51.109Z,36.85
2022-10-28T13:00:23.574Z,37.22
2022-10-28T13:05:31.728Z,37.55
2022-10-28T13:10:43.120Z,37.43
2022-10-28T13:16:13.627Z,37.92
2022-10-28T13:21:23.724Z,37.68
2022-10-28T13:26:34.192Z,37.42
2022-10-28T13:31:42.208Z,37.37
2022-10-28T13:36:47.131Z,38.17
2022-10-28T13:41:49.743Z,38.74
2022-10-28T13:47:16.572Z,39.23
2022-10-28T13:52:21.583Z,38.86
2022-10-28T13:57:36.916Z,39.46
2022-10-28T14:02:48.411Z,40.38
2022-10-28T14:07:55.539Z,40.65
2022-10-28T14:13:05.111Z,42.14
2022-10-28T14:23:42.978Z,42.28
2022-10-28T14:28:45.250Z,42.73
2022-10-28T14:33:56.714Z,45.45
2022-10-28T14:39:04.814Z,52.75
2022-10-28T14:44:25.797Z,55.70
2022-10-28T14:49:29.603Z,45.97
2022-10-28T14:54:44.046Z,51.78
2022-10-28T14:59:46.827Z,58.04
2022-10-28T15:05:01.884Z,55.48
2022-10-28T15:10:14.227Z,60.90
2022-10-28T15:15:24.714Z,57.94
2022-10-28T15:20:34.938Z,60.16
2022-10-28T15:25:37.231Z,63.47
2022-10-28T15:30:46.037Z,65.88
2022-10-28T15:35:49.188Z,64.65
2022-10-28T15:40:51.979Z,69.06
2022-10-28T15:45:54.808Z,72.12
2022-10-28T15:51:15.485Z,68.12
2022-10-28T15:56:28.236Z,70.33
2022-10-28T16:01:40.752Z,72.75
2022-10-28T16:06:43.374Z,73.10
2022-10-28T16:11:52.135Z,76.13
2022-10-28T16:16:54.458Z,76.70
2022-10-28T16:21:56.615Z,76.15
2022-10-28T16:27:21.069Z,78.40
2022-10-28T16:32:37.000Z,78.42
2022-10-28T16:37:44.525Z,78.80
2022-10-28T16:42:48.117Z,79.37
2022-10-28T16:47:50.246Z,80.45
2022-10-28T16:52:54.532Z,81.50
2022-10-28T16:57:57.005Z,81.73
2022-10-28T17:02:59.588Z,82.14
2022-10-28T17:08:05.874Z,82.17
2022-10-28T17:13:15.386Z,82.12
2022-10-28T17:18:17.639Z,82.93
2022-10-28T17:23:20.933Z,83.66
2022-10-28T17:28:23.026Z,85.46
2022-10-28T17:33:25.190Z,88.01
2022-10-28T17:38:27.209Z,89.04
2022-10-28T17:43:29.375Z,92.82
2022-10-28T17:48:31.653Z,93.69
2022-10-28T17:53:33.988Z,95.78
2022-10-28T17:58:36.167Z,95.71
2022-10-28T18:03:39.256Z,94.46
2022-10-28T18:08:43.277Z,94.54
2022-10-28T18:13:47.823Z,94.13
2022-10-28T18:18:51.764Z,94.18
2022-10-28T18:23:57.310Z,95.55
2022-10-28T18:29:04.064Z,96.39
2022-10-28T18:34:06.702Z,96.34
2022-10-28T18:39:09.339Z,97.29
2022-10-28T18:44:14.371Z,98.30
2022-10-28T18:49:16.799Z,98.78
2022-10-28T18:54:18.819Z,100.00
2022-10-28T18:59:20.837Z,100.00
2022-10-28T19:04:23.044Z,100.00
2022-10-28T19:09:25.129Z,100.00
2022-10-28T19:14:27.227Z,100.00
2022-10-28T19:19:29.382Z,100.00
2022-10-28T19:24:31.588Z,100.00
2022-10-28T19:29:33.800Z,100.00
2022-10-28T19:34:35.948Z,100.00
2022-10-28T19:39:38.418Z,100.00
2022-10-28T19:44:40.509Z,100.00
2022-10-28T19:49:44.518Z,100.00
2022-10-28T19:54:47.115Z,100.00
2022-10-28T19:59:49.311Z,100.00
2022-10-28T20:04:55.157Z,100.00
2022-10-28T20:15:06.016Z,100.00
2022-10-28T20:20:08.786Z,100.00
2022-10-28T20:25:10.830Z,100.00
2022-10-28T20:30:13.347Z,100.00
2022-10-28T20:35:15.613Z,100.00
2022-10-28T20:40:17.772Z,100.00
2022-10-28T20:45:19.802Z,100.00
2022-10-28T20:50:21.948Z,100.00
2022-10-28T20:55:24.369Z,100.00
2022-10-28T21:00:26.612Z,100.00
2022-10-28T21:05:31.073Z,100.00
2022-10-28T21:10:35.617Z,100.00
2022-10-28T21:15:39.898Z,100.00
2022-10-28T21:20:42.257Z,100.00
2022-10-28T21:25:51.785Z,100.00
2022-10-28T21:31:06.242Z,100.00
2022-10-28T21:36:15.464Z,100.00
2022-10-28T21:41:19.893Z,100.00
2022-10-28T21:46:24.536Z,100.00
2022-10-28T21:51:26.822Z,100.00
2022-10-28T21:56:28.980Z,100.00
2022-10-28T22:01:33.212Z,100.00
2022-10-28T22:06:35.661Z,100.00
2022-10-28T22:11:38.039Z,100.00
2022-10-28T22:16:40.804Z,100.00
2022-10-28T22:21:50.585Z,100.00
2022-10-28T22:26:55.271Z,100.00
2022-10-28T22:31:57.520Z,100.00
2022-10-28T22:36:59.609Z,100.00
2022-10-28T22:42:02.883Z,100.00
2022-10-28T22:47:05.074Z,100.00
2022-10-28T22:52:07.203Z,100.00
2022-10-28T22:57:09.353Z,100.00
2022-10-28T23:02:11.553Z,100.00
2022-10-28T23:07:14.135Z,100.00
2022-10-28T23:12:16.433Z,100.00
2022-10-28T23:17:18.471Z,100.00
2022-10-28T23:22:20.485Z,100.00
2022-10-28T23:27:22.815Z,100.00
2022-10-28T23:32:26.251Z,100.00
2022-10-28T23:37:28.679Z,100.00
2022-10-28T23:42:31.458Z,100.00
2022-10-28T23:47:33.501Z,100.00
2022-10-28T23:52:35.687Z,100.00
2022-10-28T23:57:37.905Z,100.00
